Eppley Airfield
KOMA : now visible

Airfield :











YOU CAN JOIN US ON...

 
LOGIN :

Register | Disclaimer

   EN    FR    IT 

 









Legend :    VFR   Marginal VFR   IFR   Intensive IFR   Very Intensive IFR
Visi :
Ceiling :
>= 8 km
>= 3000ft
5 to 8 km
1000 to 3000 ft
1500m to 5 km
500 to 1000 ft
800 to 1500m
200 to 500 ft
< 800m
< 200 ft
Symbols :   Thunderstorms  Fog  Heavy snow  Heavy precipitations  Wind > 20 kt






- Airport Elevation : 984 ft
- IATA code : OMA


KOMA - Eppley

CURRENT METAR :
  • 290752Z 35008KT 10SM BKN047 OVC065 04/M02 A2957 RMK AO2 SLP015 T00391022

EXPIRED METARs :
  • 290652Z 01007KT 10SM OVC046 04/M02 A2961 RMK AO2 SLP029 T00391022
  • 290552Z 31005KT 10SM BKN048 03/M02 A2963 RMK AO2 SLPNO T00281022 10083 20011 401221056 56020
  • 290452Z 00000KT 10SM BKN048 OVC100 04/M02 A2965 RMK AO2 SLP044 T00441022

TAF KOMA
Valid from the 29 at 06:00 until the 30 at 06:00 UTC


290539Z 2906/3006 06006KT P6SM OVC040
FM291000 02010KT P6SM OVC025
FM291300 36020G30KT 3SM -FZDZ OVC008
FM291900 34020G32KT 3SM -SN OVC015
FM292300 32014G25KT P6SM BKN090
KZMP FIR / North America



MET'MAP, your aeronautical weather chart ! - Copyright ORBIFLY December 2007 - Disclaimer

ORBIFLY MET'MAP TEAM :

Programming & Development : Alexandra Zaïnal
Original concept : Baudouin d'Aumeries
Technical & hardware support : Manuel Goepfert
Assistance : Marc-Olivier Méhu




SOURCES & CREDITS :

   NOAA       Earth
Advisory